createdAt,value
2019-05-25T00:00:21.760Z,935.48
2019-05-25T00:01:22.308Z,935.42
2019-05-25T00:02:23.041Z,935.43
2019-05-25T00:03:23.769Z,935.43
2019-05-25T00:04:24.469Z,935.39
2019-05-25T00:05:24.844Z,935.39
2019-05-25T00:06:24.979Z,935.44
2019-05-25T00:07:25.499Z,935.42
2019-05-25T00:08:25.910Z,935.37
2019-05-25T00:09:26.346Z,935.42
2019-05-25T00:10:27.040Z,935.37
2019-05-25T00:11:27.256Z,935.39
2019-05-25T00:12:27.665Z,935.35
2019-05-25T00:13:28.065Z,935.4
2019-05-25T00:14:28.817Z,935.37
2019-05-25T00:15:29.232Z,935.44
2019-05-25T00:16:29.945Z,935.39
2019-05-25T00:17:30.668Z,935.43
2019-05-25T00:18:31.097Z,935.44
2019-05-25T00:19:31.823Z,935.41
2019-05-25T00:20:32.000Z,935.41
2019-05-25T00:21:33.087Z,935.42
2019-05-25T00:22:33.550Z,935.42
2019-05-25T00:23:33.969Z,935.39
2019-05-25T00:24:34.377Z,935.39
2019-05-25T00:25:34.825Z,935.38
2019-05-25T00:26:35.086Z,935.38
2019-05-25T00:27:35.775Z,935.35
2019-05-25T00:28:36.477Z,935.36
2019-05-25T00:29:36.891Z,935.35
2019-05-25T00:30:37.287Z,935.33
2019-05-25T00:31:38.236Z,935.32
2019-05-25T00:32:39.222Z,935.31
2019-05-25T00:33:40.213Z,935.32
2019-05-25T00:34:40.688Z,935.29
2019-05-25T00:35:41.087Z,935.3
2019-05-25T00:36:41.505Z,935.31
2019-05-25T00:37:41.916Z,935.26
2019-05-25T00:38:42.384Z,935.27
2019-05-25T00:39:42.508Z,935.29
2019-05-25T00:40:42.936Z,935.3
2019-05-25T00:41:43.474Z,935.23
2019-05-25T00:42:43.870Z,935.24
2019-05-25T00:43:44.269Z,935.25
2019-05-25T00:44:44.971Z,935.24
2019-05-25T00:45:45.678Z,935.24
2019-05-25T00:46:46.452Z,935.22
2019-05-25T00:47:47.135Z,935.2
2019-05-25T00:48:47.260Z,935.18
2019-05-25T00:49:48.276Z,935.19
2019-05-25T00:50:48.974Z,935.14
2019-05-25T00:51:49.250Z,935.2
2019-05-25T00:52:49.677Z,935.2
2019-05-25T00:53:50.073Z,935.24
2019-05-25T00:54:50.190Z,935.19
2019-05-25T00:55:50.901Z,935.18
2019-05-25T00:56:51.015Z,935.2
2019-05-25T00:57:51.441Z,935.2
2019-05-25T00:58:51.559Z,935.17
2019-05-25T00:59:52.547Z,935.18
2019-05-25T01:00:53.532Z,935.16
2019-05-25T01:01:54.333Z,935.19
2019-05-25T01:02:54.763Z,935.11
2019-05-25T01:03:55.353Z,935.11
2019-05-25T01:04:55.469Z,935.16
2019-05-25T01:05:55.905Z,935.09
2019-05-25T01:06:56.337Z,935.12
2019-05-25T01:07:57.006Z,935.13
2019-05-25T01:08:57.975Z,935.14
2019-05-25T01:09:58.384Z,935.11
2019-05-25T01:10:59.141Z,935.12
2019-05-25T01:12:00.073Z,935.15
2019-05-25T01:13:00.216Z,935.12
2019-05-25T01:14:00.642Z,935.14
2019-05-25T01:15:01.645Z,935.15
2019-05-25T01:16:02.090Z,935.15
2019-05-25T01:17:02.794Z,935.15
2019-05-25T01:18:03.227Z,935.18
2019-05-25T01:19:03.738Z,935.16
2019-05-25T01:20:04.172Z,935.11
2019-05-25T01:21:04.894Z,935.13
2019-05-25T01:22:05.128Z,935.13
2019-05-25T01:23:05.839Z,935.14
2019-05-25T01:24:06.811Z,935.14
2019-05-25T01:25:07.523Z,935.15
2019-05-25T01:26:08.551Z,935.17
2019-05-25T01:27:09.260Z,935.13
2019-05-25T01:28:09.545Z,935.15
2019-05-25T01:29:09.989Z,935.12
2019-05-25T01:30:10.684Z,935.12
2019-05-25T01:31:11.100Z,935.1
2019-05-25T01:32:11.761Z,935.08
2019-05-25T01:33:12.200Z,935.1
2019-05-25T01:34:12.316Z,935.07
2019-05-25T01:35:12.728Z,935.08
2019-05-25T01:36:13.806Z,935.05
2019-05-25T01:37:14.215Z,935.04
2019-05-25T01:38:14.915Z,935.02
2019-05-25T01:39:15.040Z,935.05
2019-05-25T01:40:15.458Z,935.1
2019-05-25T01:41:15.955Z,935.08
2019-05-25T01:42:16.186Z,935.12
2019-05-25T01:43:17.180Z,935.08
2019-05-25T01:44:17.343Z,935.06
2019-05-25T01:45:18.030Z,935.08
2019-05-25T01:46:18.736Z,935.07
2019-05-25T01:47:19.540Z,935.06
2019-05-25T01:48:19.936Z,935.04
2019-05-25T01:49:20.061Z,935.05
2019-05-25T01:50:20.779Z,935.03
2019-05-25T01:51:21.187Z,934.99
2019-05-25T01:52:22.126Z,935
2019-05-25T01:53:22.796Z,935.04
2019-05-25T01:54:23.488Z,935.05
2019-05-25T01:55:23.904Z,935.03
2019-05-25T01:56:24.325Z,935.03
2019-05-25T01:57:24.739Z,935.04
2019-05-25T01:58:25.432Z,935
2019-05-25T01:59:25.828Z,935.01
2019-05-25T02:00:26.228Z,935
2019-05-25T02:01:26.900Z,935.02
2019-05-25T02:02:27.172Z,935.02
2019-05-25T02:03:27.846Z,934.98
2019-05-25T02:04:28.838Z,935.02
2019-05-25T02:05:29.249Z,935.01
2019-05-25T02:06:29.670Z,935.01
2019-05-25T02:07:30.367Z,935.02
2019-05-25T02:08:30.848Z,934.98
2019-05-25T02:09:31.539Z,935.02
2019-05-25T02:10:31.999Z,935
2019-05-25T02:11:32.386Z,935
2019-05-25T02:12:32.618Z,934.99
2019-05-25T02:13:33.024Z,934.96
2019-05-25T02:14:33.443Z,934.99
2019-05-25T02:15:33.783Z,934.96
2019-05-25T02:16:34.475Z,934.95
2019-05-25T02:17:35.169Z,934.95
2019-05-25T02:18:35.938Z,934.94
2019-05-25T02:19:36.301Z,934.9
2019-05-25T02:20:36.712Z,934.97
2019-05-25T02:21:37.462Z,934.94
2019-05-25T02:22:38.412Z,934.92
2019-05-25T02:23:39.114Z,934.96
2019-05-25T02:24:39.520Z,934.94
2019-05-25T02:25:39.928Z,934.93
2019-05-25T02:26:40.714Z,934.89
2019-05-25T02:27:41.637Z,934.87
2019-05-25T02:28:41.755Z,934.86
2019-05-25T02:29:42.178Z,934.85
2019-05-25T02:30:42.617Z,934.86
2019-05-25T02:31:43.072Z,934.86
2019-05-25T02:32:43.334Z,934.85
2019-05-25T02:33:43.636Z,934.79
2019-05-25T02:34:44.033Z,934.83
2019-05-25T02:35:44.735Z,934.81
2019-05-25T02:36:45.146Z,934.86
2019-05-25T02:37:45.280Z,934.81
2019-05-25T02:38:45.744Z,934.89
2019-05-25T02:39:46.434Z,934.82
2019-05-25T02:40:46.568Z,934.83
2019-05-25T02:41:46.987Z,934.84
2019-05-25T02:42:47.231Z,934.84
2019-05-25T02:43:47.633Z,934.8
2019-05-25T02:44:48.043Z,934.8
2019-05-25T02:45:48.714Z,934.81
2019-05-25T02:46:49.404Z,934.77
2019-05-25T02:47:50.098Z,934.82
2019-05-25T02:48:51.100Z,934.8
2019-05-25T02:49:52.107Z,934.79
2019-05-25T02:50:53.141Z,934.74
2019-05-25T02:51:53.488Z,934.76
2019-05-25T02:52:54.052Z,934.78
2019-05-25T02:53:55.046Z,934.8
2019-05-25T02:54:55.779Z,934.8
2019-05-25T02:55:55.895Z,934.79
2019-05-25T02:56:56.307Z,934.77
2019-05-25T02:57:56.427Z,934.78
2019-05-25T02:58:56.550Z,934.76
2019-05-25T02:59:56.967Z,934.77
2019-05-25T03:00:57.380Z,934.78
2019-05-25T03:01:57.793Z,934.79
2019-05-25T03:02:58.737Z,934.8
2019-05-25T03:03:59.170Z,934.78
2019-05-25T03:04:59.842Z,934.8
2019-05-25T03:06:00.255Z,934.82
2019-05-25T03:07:01.074Z,934.82
2019-05-25T03:08:01.487Z,934.85
2019-05-25T03:09:01.609Z,934.82
2019-05-25T03:10:02.143Z,934.87
2019-05-25T03:11:02.539Z,934.86
2019-05-25T03:12:03.568Z,934.86
2019-05-25T03:13:04.357Z,934.87
2019-05-25T03:14:04.507Z,934.91
2019-05-25T03:15:05.218Z,934.92
2019-05-25T03:16:05.727Z,934.91
2019-05-25T03:17:06.142Z,934.92
2019-05-25T03:18:06.549Z,934.93
2019-05-25T03:19:06.688Z,934.96
2019-05-25T03:20:06.833Z,934.95
2019-05-25T03:21:07.279Z,934.95
2019-05-25T03:22:07.711Z,934.97
2019-05-25T03:23:08.145Z,934.93
2019-05-25T03:24:09.143Z,934.95
2019-05-25T03:25:10.145Z,934.97
2019-05-25T03:26:10.554Z,934.97
2019-05-25T03:27:10.979Z,934.98
2019-05-25T03:28:11.387Z,934.96
2019-05-25T03:29:11.516Z,934.95
2019-05-25T03:30:12.001Z,934.98
2019-05-25T03:31:12.066Z,934.96
2019-05-25T03:32:13.078Z,934.98
2019-05-25T03:33:13.523Z,934.97
2019-05-25T03:34:13.802Z,934.92
2019-05-25T03:35:14.519Z,934.95
2019-05-25T03:36:14.816Z,934.94
2019-05-25T03:37:15.243Z,934.99
2019-05-25T03:38:15.688Z,934.96
2019-05-25T03:39:16.393Z,934.96
2019-05-25T03:40:17.089Z,935.01
2019-05-25T03:41:17.223Z,934.93
2019-05-25T03:42:17.636Z,934.98
2019-05-25T03:43:18.187Z,934.96
2019-05-25T03:44:18.304Z,934.94
2019-05-25T03:45:19.018Z,934.95
2019-05-25T03:46:19.425Z,935
2019-05-25T03:47:19.559Z,934.97
2019-05-25T03:48:20.283Z,934.96
2019-05-25T03:49:20.403Z,935
2019-05-25T03:50:20.804Z,934.96
2019-05-25T03:51:21.201Z,934.95
2019-05-25T03:52:21.613Z,934.95
2019-05-25T03:53:21.874Z,934.94
2019-05-25T03:54:22.591Z,934.93
2019-05-25T03:55:23.291Z,934.91
2019-05-25T03:56:23.967Z,934.9
2019-05-25T03:57:24.388Z,934.94
2019-05-25T03:58:24.507Z,934.94
2019-05-25T03:59:25.225Z,934.95
2019-05-25T04:00:25.348Z,935
2019-05-25T04:01:25.841Z,934.98
2019-05-25T04:02:26.678Z,934.94
2019-05-25T04:03:27.720Z,934.96
2019-05-25T04:04:28.130Z,934.94
2019-05-25T04:05:28.317Z,934.99
2019-05-25T04:06:28.719Z,935.04
2019-05-25T04:07:29.139Z,935.01
2019-05-25T04:08:29.269Z,934.99
2019-05-25T04:09:29.399Z,935.03
2019-05-25T04:10:29.516Z,934.98
2019-05-25T04:11:30.529Z,935.01
2019-05-25T04:12:30.650Z,935.02
2019-05-25T04:13:31.233Z,935
2019-05-25T04:14:31.654Z,934.98
2019-05-25T04:15:32.057Z,935
2019-05-25T04:16:32.176Z,935.04
2019-05-25T04:17:32.588Z,935.01
2019-05-25T04:18:33.013Z,935.02
2019-05-25T04:19:33.998Z,935.03
2019-05-25T04:20:34.708Z,935.03
2019-05-25T04:21:34.830Z,935.01
2019-05-25T04:22:35.818Z,935.05
2019-05-25T04:23:36.028Z,935.04
2019-05-25T04:24:36.146Z,935.08
2019-05-25T04:25:36.265Z,935.06
2019-05-25T04:26:36.685Z,935.09
2019-05-25T04:27:36.812Z,935.06
2019-05-25T04:28:37.504Z,935.06
2019-05-25T04:29:37.904Z,935.06
2019-05-25T04:30:38.616Z,935.08
2019-05-25T04:31:39.640Z,935.08
2019-05-25T04:32:40.130Z,935.11
2019-05-25T04:33:41.134Z,935.1
2019-05-25T04:34:41.566Z,935.1
2019-05-25T04:35:41.686Z,935.1
2019-05-25T04:36:42.107Z,935.1
2019-05-25T04:37:42.527Z,935.16
2019-05-25T04:38:43.000Z,935.13
2019-05-25T04:39:43.131Z,935.16
2019-05-25T04:40:43.251Z,935.12
2019-05-25T04:41:43.678Z,935.14
2019-05-25T04:42:44.074Z,935.18
2019-05-25T04:43:44.317Z,935.17
2019-05-25T04:44:45.013Z,935.18
2019-05-25T04:45:46.041Z,935.17
2019-05-25T04:46:46.752Z,935.21
2019-05-25T04:47:47.171Z,935.24
2019-05-25T04:48:47.600Z,935.25
2019-05-25T04:49:47.721Z,935.28
2019-05-25T04:50:48.419Z,935.3
2019-05-25T04:51:48.539Z,935.31
2019-05-25T04:52:49.040Z,935.35
2019-05-25T04:53:49.993Z,935.36
2019-05-25T04:54:50.452Z,935.35
2019-05-25T04:55:51.163Z,935.35
2019-05-25T04:56:51.578Z,935.37
2019-05-25T04:57:52.512Z,935.4
2019-05-25T04:58:52.934Z,935.42
2019-05-25T04:59:53.364Z,935.42
2019-05-25T05:00:53.788Z,935.45
2019-05-25T05:01:54.503Z,935.44
2019-05-25T05:02:55.501Z,935.46
2019-05-25T05:03:56.051Z,935.47
2019-05-25T05:04:57.047Z,935.47
2019-05-25T05:05:57.897Z,935.51
2019-05-25T05:06:58.871Z,935.51
2019-05-25T05:07:59.876Z,935.52
2019-05-25T05:09:00.301Z,935.53
2019-05-25T05:10:02.885Z,935.53
2019-05-25T05:11:02.323Z,935.52
2019-05-25T05:12:02.731Z,935.51
2019-05-25T05:13:03.129Z,935.5
2019-05-25T05:14:03.423Z,935.53
2019-05-25T05:15:03.845Z,935.52
2019-05-25T05:16:04.882Z,935.52
2019-05-25T05:17:04.999Z,935.49
2019-05-25T05:18:05.689Z,935.51
2019-05-25T05:19:06.446Z,935.56
2019-05-25T05:20:06.876Z,935.55
2019-05-25T05:21:06.999Z,935.58
2019-05-25T05:22:07.398Z,935.58
2019-05-25T05:23:07.813Z,935.57
2019-05-25T05:24:08.757Z,935.58
2019-05-25T05:25:10.010Z,935.55
2019-05-25T05:26:09.797Z,935.54
2019-05-25T05:27:10.511Z,935.55
2019-05-25T05:28:10.633Z,935.56
2019-05-25T05:29:11.339Z,935.58
2019-05-25T05:30:11.755Z,935.57
2019-05-25T05:31:23.007Z,935.55
2019-05-25T05:32:26.507Z,935.54
2019-05-25T05:33:12.771Z,935.58
2019-05-25T05:34:13.010Z,935.55
2019-05-25T05:35:13.426Z,935.61
2019-05-25T05:36:14.211Z,935.58
2019-05-25T05:37:14.632Z,935.6
2019-05-25T05:38:15.698Z,935.59
2019-05-25T05:39:16.445Z,935.58
2019-05-25T05:40:16.740Z,935.59
2019-05-25T05:41:16.860Z,935.59
2019-05-25T05:42:17.259Z,935.55
2019-05-25T05:43:17.680Z,935.58
2019-05-25T05:44:18.625Z,935.62
2019-05-25T05:45:19.040Z,935.64
2019-05-25T05:46:19.451Z,935.65
2019-05-25T05:47:19.891Z,935.68
2019-05-25T05:48:20.017Z,935.69
2019-05-25T05:49:20.438Z,935.76
2019-05-25T05:50:21.149Z,935.76
2019-05-25T05:51:22.137Z,935.75
2019-05-25T05:52:22.563Z,935.8
2019-05-25T05:53:22.684Z,935.77
2019-05-25T05:54:23.336Z,935.8
2019-05-25T05:55:23.739Z,935.74
2019-05-25T05:56:24.225Z,935.75
2019-05-25T05:57:24.395Z,935.76
2019-05-25T05:58:25.386Z,935.74
2019-05-25T05:59:25.799Z,935.75
2019-05-25T06:00:25.920Z,935.75
2019-05-25T06:01:26.323Z,935.72
2019-05-25T06:02:26.459Z,935.76
2019-05-25T06:03:27.154Z,935.74
2019-05-25T06:04:28.185Z,935.73
2019-05-25T06:05:29.195Z,935.77
2019-05-25T06:06:30.182Z,935.77
2019-05-25T06:07:30.896Z,935.75
2019-05-25T06:08:31.317Z,935.73
2019-05-25T06:09:31.720Z,935.77
2019-05-25T06:10:32.429Z,935.78
2019-05-25T06:11:32.833Z,935.74
2019-05-25T06:12:32.960Z,935.77
2019-05-25T06:13:33.386Z,935.74
2019-05-25T06:14:34.057Z,935.74
2019-05-25T06:15:34.478Z,935.75
2019-05-25T06:16:34.900Z,935.76
2019-05-25T06:17:35.325Z,935.73
2019-05-25T06:18:36.042Z,935.74
2019-05-25T06:19:36.484Z,935.73
2019-05-25T06:20:37.484Z,935.75
2019-05-25T06:21:38.181Z,935.73
2019-05-25T06:22:39.232Z,935.75
2019-05-25T06:23:39.984Z,935.72
2019-05-25T06:24:40.939Z,935.74
2019-05-25T06:25:41.342Z,935.74
2019-05-25T06:26:42.052Z,935.71
2019-05-25T06:27:42.758Z,935.74
2019-05-25T06:28:42.886Z,935.75
2019-05-25T06:29:43.013Z,935.78
2019-05-25T06:30:43.144Z,935.79
2019-05-25T06:31:43.620Z,935.79
2019-05-25T06:32:44.320Z,935.8
2019-05-25T06:33:44.446Z,935.82
2019-05-25T06:34:45.403Z,935.86
2019-05-25T06:35:45.827Z,935.84
2019-05-25T06:36:46.243Z,935.87
2019-05-25T06:37:46.366Z,935.89
2019-05-25T06:38:47.079Z,935.92
2019-05-25T06:39:47.492Z,935.94
2019-05-25T06:40:48.490Z,935.93
2019-05-25T06:41:48.644Z,935.93
2019-05-25T06:42:49.420Z,935.96
2019-05-25T06:43:49.843Z,935.95
2019-05-25T06:44:50.422Z,935.95
2019-05-25T06:45:50.563Z,935.96
2019-05-25T06:46:50.707Z,935.94
2019-05-25T06:47:50.842Z,935.95
2019-05-25T06:48:51.287Z,935.97
2019-05-25T06:49:52.042Z,935.98
2019-05-25T06:50:52.166Z,935.97
2019-05-25T06:51:52.292Z,935.94
2019-05-25T06:52:52.413Z,935.96
2019-05-25T06:53:52.723Z,935.95
2019-05-25T06:54:53.250Z,935.96
2019-05-25T06:55:54.246Z,936
2019-05-25T06:56:54.425Z,935.96
2019-05-25T06:57:54.558Z,935.95
2019-05-25T06:58:54.966Z,935.96
2019-05-25T06:59:55.541Z,936
2019-05-25T07:00:56.561Z,935.99
2019-05-25T07:01:56.776Z,936
2019-05-25T07:02:56.898Z,936
2019-05-25T07:03:57.630Z,935.97
2019-05-25T07:04:57.879Z,935.99
2019-05-25T07:05:58.011Z,935.99
2019-05-25T07:06:58.306Z,936
2019-05-25T07:07:58.435Z,936.03
2019-05-25T07:08:59.303Z,936
2019-05-25T07:09:59.732Z,935.99
2019-05-25T07:11:00.462Z,935.99
2019-05-25T07:12:01.151Z,935.99
2019-05-25T07:13:01.848Z,935.99
2019-05-25T07:14:02.284Z,936
2019-05-25T07:15:02.526Z,935.97
2019-05-25T07:16:03.281Z,936.01
2019-05-25T07:17:03.408Z,936.11
2019-05-25T07:18:03.533Z,936.11
2019-05-25T07:19:03.690Z,936.07
2019-05-25T07:20:04.669Z,936.11
2019-05-25T07:21:04.828Z,936.13
2019-05-25T07:22:05.537Z,936.04
2019-05-25T07:23:05.946Z,936.1
2019-05-25T07:24:06.644Z,936.16
2019-05-25T07:25:07.627Z,936.19
2019-05-25T07:26:08.052Z,936.17
2019-05-25T07:27:08.176Z,936.19
2019-05-25T07:28:08.583Z,936.19
2019-05-25T07:29:09.019Z,936.16
2019-05-25T07:30:09.154Z,936.17
2019-05-25T07:31:09.858Z,936.17
2019-05-25T07:32:10.655Z,936.19
2019-05-25T07:33:11.658Z,936.21
2019-05-25T07:34:12.110Z,936.25
2019-05-25T07:35:13.079Z,936.22
2019-05-25T07:36:13.528Z,936.22
2019-05-25T07:37:14.531Z,936.19
2019-05-25T07:38:14.953Z,936.25
2019-05-25T07:39:15.355Z,936.26
2019-05-25T07:40:15.781Z,936.25
2019-05-25T07:41:16.207Z,936.28
2019-05-25T07:42:19.847Z,936.28
2019-05-25T07:43:17.485Z,936.31
2019-05-25T07:44:18.203Z,936.3
2019-05-25T07:45:19.178Z,936.27
2019-05-25T07:46:19.913Z,936.28
2019-05-25T07:47:20.317Z,936.22
2019-05-25T07:48:20.815Z,936.26
2019-05-25T07:49:21.579Z,936.26
2019-05-25T07:50:22.301Z,936.28
2019-05-25T07:51:23.387Z,936.27
2019-05-25T07:52:23.519Z,936.26
2019-05-25T07:53:23.653Z,936.25
2019-05-25T07:54:23.857Z,936.23
2019-05-25T07:55:24.127Z,936.25
2019-05-25T07:56:24.563Z,936.29
2019-05-25T07:57:27.881Z,936.28
2019-05-25T07:58:24.969Z,936.34
2019-05-25T07:59:25.099Z,936.39
2019-05-25T08:00:25.817Z,936.34
2019-05-25T08:01:26.237Z,936.32
2019-05-25T08:02:27.268Z,936.35
2019-05-25T08:03:27.718Z,936.32
2019-05-25T08:04:28.162Z,936.34
2019-05-25T08:05:28.425Z,936.36
2019-05-25T08:06:29.498Z,936.32
2019-05-25T08:07:29.740Z,936.37
2019-05-25T08:08:30.189Z,936.37
2019-05-25T08:09:30.626Z,936.4
2019-05-25T08:10:30.770Z,936.37
2019-05-25T08:11:31.204Z,936.35
2019-05-25T08:12:31.941Z,936.42
2019-05-25T08:13:32.978Z,936.39
2019-05-25T08:14:33.410Z,936.41
2019-05-25T08:15:34.264Z,936.41
2019-05-25T08:16:34.675Z,936.43
2019-05-25T08:17:35.713Z,936.36
2019-05-25T08:18:36.455Z,936.38
2019-05-25T08:19:36.957Z,936.38
2019-05-25T08:20:37.274Z,936.37
2019-05-25T08:21:37.997Z,936.36
2019-05-25T08:22:38.745Z,936.36
2019-05-25T08:23:39.452Z,936.4
2019-05-25T08:24:39.868Z,936.41
2019-05-25T08:25:40.044Z,936.41
2019-05-25T08:26:40.472Z,936.43
2019-05-25T08:27:41.199Z,936.46
2019-05-25T08:28:41.630Z,936.47
2019-05-25T08:29:42.331Z,936.44
2019-05-25T08:30:42.489Z,936.46
2019-05-25T08:31:43.031Z,936.47
2019-05-25T08:32:43.163Z,936.5
2019-05-25T08:33:43.298Z,936.5
2019-05-25T08:34:43.491Z,936.48
2019-05-25T08:35:46.421Z,936.48
2019-05-25T08:36:44.957Z,936.45
2019-05-25T08:37:45.372Z,936.49
2019-05-25T08:38:46.078Z,936.54
2019-05-25T08:39:46.874Z,936.56
2019-05-25T08:40:47.580Z,936.53
2019-05-25T08:41:47.727Z,936.53
2019-05-25T08:42:48.446Z,936.47
2019-05-25T08:43:48.938Z,936.51
2019-05-25T08:44:49.764Z,936.54
2019-05-25T08:45:50.316Z,936.52
2019-05-25T08:46:50.750Z,936.49
2019-05-25T08:47:51.497Z,936.49
2019-05-25T08:48:51.837Z,936.51
2019-05-25T08:49:52.526Z,936.54
2019-05-25T08:50:52.668Z,936.54
2019-05-25T08:51:54.977Z,936.51
2019-05-25T08:52:53.208Z,936.52
2019-05-25T08:53:53.469Z,936.51
2019-05-25T08:54:53.619Z,936.52
2019-05-25T08:55:54.452Z,936.48
2019-05-25T08:56:55.486Z,936.54
2019-05-25T08:57:56.145Z,936.52
2019-05-25T08:58:56.848Z,936.48
2019-05-25T08:59:57.264Z,936.51
2019-05-25T09:00:58.030Z,936.51
2019-05-25T09:01:59.065Z,936.47
2019-05-25T09:02:59.915Z,936.49
2019-05-25T09:04:00.348Z,936.48
2019-05-25T09:05:00.760Z,936.5
2019-05-25T09:06:01.796Z,936.54
2019-05-25T09:07:02.516Z,936.55
2019-05-25T09:08:02.944Z,936.5
2019-05-25T09:09:03.363Z,936.55
2019-05-25T09:10:04.188Z,936.53
2019-05-25T09:11:04.731Z,936.51
2019-05-25T09:12:05.151Z,936.5
2019-05-25T09:13:05.881Z,936.51
2019-05-25T09:14:06.074Z,936.49
2019-05-25T09:15:06.255Z,936.51
2019-05-25T09:16:06.964Z,936.5
2019-05-25T09:17:07.691Z,936.54
2019-05-25T09:18:08.408Z,936.55
2019-05-25T09:19:08.836Z,936.58
2019-05-25T09:20:08.983Z,936.55
2019-05-25T09:21:09.721Z,936.59
2019-05-25T09:22:09.883Z,936.56
2019-05-25T09:23:10.016Z,936.52
2019-05-25T09:24:10.453Z,936.52
2019-05-25T09:25:11.170Z,936.49
2019-05-25T09:26:13.417Z,936.5
2019-05-25T09:27:11.600Z,936.48
2019-05-25T09:28:12.327Z,936.45
2019-05-25T09:29:12.746Z,936.41
2019-05-25T09:30:13.459Z,936.45
2019-05-25T09:31:14.199Z,936.47
2019-05-25T09:32:14.687Z,936.42
2019-05-25T09:33:15.096Z,936.45
2019-05-25T09:34:15.525Z,936.46
2019-05-25T09:35:15.659Z,936.45
2019-05-25T09:36:16.654Z,936.43
2019-05-25T09:37:17.077Z,936.42
2019-05-25T09:38:17.787Z,936.42
2019-05-25T09:39:17.926Z,936.43
2019-05-25T09:40:18.677Z,936.41
2019-05-25T09:41:19.411Z,936.4
2019-05-25T09:42:20.277Z,936.38
2019-05-25T09:43:21.279Z,936.35
2019-05-25T09:44:22.153Z,936.38
2019-05-25T09:45:23.218Z,936.41
2019-05-25T09:46:23.899Z,936.38
2019-05-25T09:47:24.617Z,936.41
2019-05-25T09:48:25.046Z,936.41
2019-05-25T09:49:25.739Z,936.43
2019-05-25T09:50:26.231Z,936.39
2019-05-25T09:51:26.382Z,936.45
2019-05-25T09:52:27.083Z,936.44
2019-05-25T09:53:27.487Z,936.43
2019-05-25T09:54:27.915Z,936.41
2019-05-25T09:55:28.110Z,936.39
2019-05-25T09:56:28.341Z,936.4
2019-05-25T09:57:28.769Z,936.38
2019-05-25T09:58:29.581Z,936.39
2019-05-25T09:59:30.336Z,936.4
2019-05-25T10:00:30.466Z,936.39
2019-05-25T10:01:30.862Z,936.35
2019-05-25T10:02:31.616Z,936.32
2019-05-25T10:03:32.591Z,936.31
2019-05-25T10:04:33.028Z,936.31
2019-05-25T10:05:33.446Z,936.31
2019-05-25T10:06:33.700Z,936.3
2019-05-25T10:07:33.835Z,936.31
2019-05-25T10:08:34.540Z,936.29
2019-05-25T10:09:35.257Z,936.34
2019-05-25T10:10:35.720Z,936.31
2019-05-25T10:11:36.425Z,936.29
2019-05-25T10:12:36.928Z,936.32
2019-05-25T10:13:37.359Z,936.28
2019-05-25T10:14:37.801Z,936.28
2019-05-25T10:15:38.214Z,936.26
2019-05-25T10:16:38.466Z,936.31
2019-05-25T10:17:38.899Z,936.27
2019-05-25T10:18:39.615Z,936.25
2019-05-25T10:19:40.080Z,936.27
2019-05-25T10:20:41.090Z,936.31
2019-05-25T10:21:41.528Z,936.29
2019-05-25T10:22:42.252Z,936.29
2019-05-25T10:23:42.390Z,936.3
2019-05-25T10:24:42.689Z,936.3
2019-05-25T10:25:43.123Z,936.28
2019-05-25T10:26:43.740Z,936.28
2019-05-25T10:27:44.844Z,936.31
2019-05-25T10:28:44.973Z,936.3
2019-05-25T10:29:45.742Z,936.25
2019-05-25T10:30:46.530Z,936.24
2019-05-25T10:31:46.935Z,936.27
2019-05-25T10:32:47.065Z,936.28
2019-05-25T10:33:47.782Z,936.27
2019-05-25T10:34:48.198Z,936.27
2019-05-25T10:35:48.924Z,936.26
2019-05-25T10:36:49.527Z,936.28
2019-05-25T10:37:49.940Z,936.25
2019-05-25T10:38:50.721Z,936.26
2019-05-25T10:39:50.835Z,936.24
2019-05-25T10:40:50.890Z,936.23
2019-05-25T10:41:51.637Z,936.22
2019-05-25T10:42:52.061Z,936.21
2019-05-25T10:43:52.479Z,936.21
2019-05-25T10:44:52.673Z,936.2
2019-05-25T10:45:53.698Z,936.17
2019-05-25T10:46:54.227Z,936.17
2019-05-25T10:47:54.649Z,936.16
2019-05-25T10:48:55.362Z,936.16
2019-05-25T10:49:55.595Z,936.12
2019-05-25T10:50:55.723Z,936.09
2019-05-25T10:51:56.389Z,936.08
2019-05-25T10:52:56.862Z,936.06
2019-05-25T10:53:57.295Z,936.07
2019-05-25T10:54:57.724Z,936.12
2019-05-25T10:55:58.464Z,936.08
2019-05-25T10:56:59.155Z,936.08
2019-05-25T10:58:00.148Z,936.09
2019-05-25T10:59:00.608Z,936.08
2019-05-25T11:00:00.736Z,936.09
2019-05-25T11:01:01.464Z,936.11
2019-05-25T11:02:02.171Z,936.11
2019-05-25T11:03:02.900Z,936.12
2019-05-25T11:04:03.357Z,936.08
2019-05-25T11:05:04.346Z,936.04
2019-05-25T11:06:04.481Z,936.03
2019-05-25T11:07:04.605Z,936
2019-05-25T11:08:05.638Z,936.01
2019-05-25T11:09:05.788Z,936.03
2019-05-25T11:10:05.913Z,936.04
2019-05-25T11:11:06.680Z,935.99
2019-05-25T11:12:07.420Z,935.98
2019-05-25T11:13:07.731Z,935.96
2019-05-25T11:14:07.866Z,935.99
2019-05-25T11:15:08.271Z,935.97
2019-05-25T11:16:08.405Z,935.94
2019-05-25T11:17:09.289Z,935.94
2019-05-25T11:18:10.321Z,935.92
2019-05-25T11:19:10.767Z,935.93
2019-05-25T11:20:11.195Z,935.95
2019-05-25T11:21:11.632Z,935.94
2019-05-25T11:22:12.086Z,935.89
2019-05-25T11:23:12.521Z,935.89
2019-05-25T11:24:12.678Z,935.91
2019-05-25T11:25:13.162Z,935.88
2019-05-25T11:26:13.290Z,935.88
2019-05-25T11:27:14.396Z,935.9
2019-05-25T11:28:15.101Z,935.83
2019-05-25T11:29:15.829Z,935.81
2019-05-25T11:30:16.526Z,935.81
2019-05-25T11:31:16.950Z,935.8
2019-05-25T11:32:17.399Z,935.79
2019-05-25T11:33:18.119Z,935.81
2019-05-25T11:34:19.143Z,935.82
2019-05-25T11:35:19.556Z,935.8
2019-05-25T11:36:20.253Z,935.8
2019-05-25T11:37:20.482Z,935.77
2019-05-25T11:38:20.921Z,935.76
2019-05-25T11:39:21.332Z,935.72
2019-05-25T11:40:22.038Z,935.72
2019-05-25T11:41:22.253Z,935.7
2019-05-25T11:42:22.970Z,935.69
2019-05-25T11:43:23.110Z,935.67
2019-05-25T11:44:23.533Z,935.68
2019-05-25T11:45:23.715Z,935.66
2019-05-25T11:46:23.860Z,935.67
2019-05-25T11:47:24.146Z,935.66
2019-05-25T11:48:24.577Z,935.65
2019-05-25T11:49:25.316Z,935.65
2019-05-25T11:50:25.729Z,935.6
2019-05-25T11:51:26.482Z,935.54
2019-05-25T11:52:26.618Z,935.56
2019-05-25T11:53:27.274Z,935.6
2019-05-25T11:54:27.412Z,935.56
2019-05-25T11:55:27.845Z,935.56
2019-05-25T11:56:28.274Z,935.54
2019-05-25T11:57:28.805Z,935.53
2019-05-25T11:58:29.222Z,935.5
2019-05-25T11:59:29.955Z,935.49
2019-05-25T12:00:30.383Z,935.49
2019-05-25T12:01:30.800Z,935.5
2019-05-25T12:02:31.215Z,935.48
2019-05-25T12:03:32.251Z,935.46
2019-05-25T12:04:32.985Z,935.46
2019-05-25T12:05:33.691Z,935.48
2019-05-25T12:06:34.175Z,935.49
2019-05-25T12:07:34.862Z,935.49
2019-05-25T12:08:35.234Z,935.47
2019-05-25T12:09:36.230Z,935.47
2019-05-25T12:10:36.690Z,935.46
2019-05-25T12:11:37.154Z,935.45
2019-05-25T12:12:38.198Z,935.44
2019-05-25T12:13:38.337Z,935.46
2019-05-25T12:14:39.049Z,935.46
2019-05-25T12:15:39.457Z,935.45
2019-05-25T12:16:40.168Z,935.45
2019-05-25T12:17:40.843Z,935.47
2019-05-25T12:18:41.166Z,935.45
2019-05-25T12:19:41.868Z,935.44
2019-05-25T12:20:42.011Z,935.44
2019-05-25T12:21:42.431Z,935.47
2019-05-25T12:22:42.853Z,935.44
2019-05-25T12:23:43.837Z,935.43
2019-05-25T12:24:44.236Z,935.43
2019-05-25T12:25:44.372Z,935.45
2019-05-25T12:26:44.789Z,935.45
2019-05-25T12:27:48.987Z,935.46
2019-05-25T12:28:45.749Z,935.48
2019-05-25T12:29:46.155Z,935.45
2019-05-25T12:30:46.300Z,935.46
2019-05-25T12:31:46.435Z,935.44
2019-05-25T12:32:47.191Z,935.47
2019-05-25T12:33:47.602Z,935.43
2019-05-25T12:34:48.021Z,935.44
2019-05-25T12:35:48.153Z,935.48
2019-05-25T12:36:48.585Z,935.45
2019-05-25T12:37:49.131Z,935.46
2019-05-25T12:38:50.137Z,935.48